Portada
METAR-TAF:

METAR-TAF

Aeroports :

Plataforma petroliera

Ekofisk, Noruega

latitud: 56-33N, longitud: 003-15E, altitud: 3 m

Observació

L'informe es va fer fa 49 minuts, a les 23:20 UTC
Vent 24 kt del Nord-Oest
Temperatura 8°C
Humitat 93%
Pressió 994 hPa
Visibilitat 10 km o més
Cel ennuvolat a una alçada de 800 ft

METAR: ENLE 062320Z 31024KT 9999 BKN008 08/07 Q0994 W09/S4

Hora: 01:09 (00:09 UTC)

Pronòstic

L'informe es va fer fa 1 hora i 9 minuts, a les 23:00 UTC
Pronòstic vàlid del 07 a les 00 UTC al 07 a les 09 UTC
Vent 28 kt del Nord-Oest
Visibilitat 10 km o més
Escasses núvols a una alçada de 1200 ft, Cumulus congestus.
Cel ennuvolat a una alçada de 2500 ft
xàfecs de pluja
Probabilitat 40%
l' 07 a les 00 UTC al 07 a les 01 UTC
Cel ennuvolat a una alçada de 800 ft

TAF: ENLE 062300Z 0700/0709 31028KT 9999 -SHRA FEW012TCU BKN025 PROB40 0700/0701 BKN008

Observacions i pronòstics meteorològics de més de 4000 aeroports (METAR i TAF).

Les estacions disponibles són els punts grocs i vermells al mapa.

Posi el ratolí al punt desitjat per veure el nom de l'estació.

Feu clic per veure les observacions i els pronòstics meteorològics.

Per canviar el mapa: feu clic els botons verds amb una creu de color negre per apropar; al botó verd amb un guió per allunyar la imatge; o en les fletxes verdes per a mapes adjacents.


METAR-TAF: